Time;durP1;ratioP1;P1;durP2;ratioP2;P2;SDS_P1;SDS_P2;PMS_P1;PMS_P2;Temp;Humidity;BMP_temperature;BMP_pressure;BME280_temperature;BME280_humidity;BME280_pressure;Samples;Min_cycle;Max_cycle;Signal;HPM_P1;HPM_P2
2023/06/18 00:03:07;;;;;;;;;;;21.90;51.40;;;;;;10328485;28;913;-71
2023/06/18 00:08:02;;;;;;;;;;;21.90;51.50;;;;;;10328512;28;875;-71
2023/06/18 00:12:57;;;;;;;;;;;21.90;51.40;;;;;;10328030;28;870;-71
2023/06/18 00:17:53;;;;;;;;;;;21.80;51.00;;;;;;10328220;28;1965;-71
2023/06/18 00:22:52;;;;;;;;;;;21.80;50.80;;;;;;10328250;28;764;-71
2023/06/18 00:27:48;;;;;;;;;;;21.90;50.90;;;;;;10327411;28;841;-71
2023/06/18 00:32:48;;;;;;;;;;;21.90;50.80;;;;;;10327315;28;878;-71
2023/06/18 00:37:47;;;;;;;;;;;21.90;51.20;;;;;;10327006;28;1914;-71
2023/06/18 00:42:42;;;;;;;;;;;21.90;51.10;;;;;;10326829;28;862;-71
2023/06/18 00:47:40;;;;;;;;;;;21.90;51.20;;;;;;10326646;28;889;-71
2023/06/18 00:52:35;;;;;;;;;;;21.90;51.20;;;;;;10327082;28;913;-71
2023/06/18 00:57:31;;;;;;;;;;;21.90;51.30;;;;;;10327068;28;1945;-71
2023/06/18 01:02:28;;;;;;;;;;;21.90;51.30;;;;;;10326308;28;936;-71
2023/06/18 01:07:23;;;;;;;;;;;21.90;51.20;;;;;;10326679;28;872;-71
2023/06/18 01:12:19;;;;;;;;;;;21.90;51.10;;;;;;10326173;28;872;-71
2023/06/18 01:17:17;;;;;;;;;;;21.90;51.10;;;;;;10325820;28;1911;-71
2023/06/18 01:22:14;;;;;;;;;;;21.90;51.20;;;;;;10325043;28;885;-71
2023/06/18 01:27:12;;;;;;;;;;;21.90;51.10;;;;;;10326154;28;897;-71
2023/06/18 01:32:07;;;;;;;;;;;21.90;51.20;;;;;;10325431;28;1073;-71
2023/06/18 01:37:03;;;;;;;;;;;21.90;51.20;;;;;;10325366;28;1906;-71
2023/06/18 01:41:59;;;;;;;;;;;21.90;51.00;;;;;;10325942;28;867;-71
2023/06/18 01:46:54;;;;;;;;;;;21.90;51.10;;;;;;10324647;28;841;-71
2023/06/18 01:51:49;;;;;;;;;;;21.90;51.10;;;;;;10324511;28;969;-71
2023/06/18 01:56:45;;;;;;;;;;;21.90;51.20;;;;;;10326211;28;1963;-71
2023/06/18 02:01:40;;;;;;;;;;;21.90;51.10;;;;;;10326401;28;856;-71
2023/06/18 02:06:36;;;;;;;;;;;21.90;51.30;;;;;;10324866;28;864;-71
2023/06/18 02:11:31;;;;;;;;;;;21.90;51.10;;;;;;10324763;28;773;-71
2023/06/18 02:16:27;;;;;;;;;;;21.90;51.10;;;;;;10325237;28;1906;-71
2023/06/18 02:21:22;;;;;;;;;;;21.80;51.20;;;;;;10324712;28;1455;-71
2023/06/18 02:26:18;;;;;;;;;;;21.80;51.10;;;;;;10324508;28;934;-71
2023/06/18 02:31:14;;;;;;;;;;;21.80;51.00;;;;;;10327389;28;876;-71
2023/06/18 02:36:10;;;;;;;;;;;21.80;51.10;;;;;;10332411;28;1910;-71
2023/06/18 02:41:06;;;;;;;;;;;21.80;51.10;;;;;;10331587;28;898;-72
2023/06/18 02:46:01;;;;;;;;;;;21.80;51.20;;;;;;10331395;28;1168;-71
2023/06/18 02:50:56;;;;;;;;;;;21.80;51.10;;;;;;10330753;28;1066;-71
2023/06/18 02:55:52;;;;;;;;;;;21.80;51.10;;;;;;10331047;28;1969;-71
2023/06/18 03:00:47;;;;;;;;;;;21.70;50.80;;;;;;10330995;28;867;-71
2023/06/18 03:05:43;;;;;;;;;;;21.70;50.60;;;;;;10330745;28;964;-71
2023/06/18 03:10:39;;;;;;;;;;;21.70;50.80;;;;;;10331104;28;856;-71
2023/06/18 03:15:34;;;;;;;;;;;21.70;50.80;;;;;;10330882;28;1910;-71
2023/06/18 03:20:31;;;;;;;;;;;21.70;51.40;;;;;;10330754;28;1308;-71
2023/06/18 03:25:27;;;;;;;;;;;21.70;50.80;;;;;;10329983;28;1723;-71
2023/06/18 03:30:22;;;;;;;;;;;21.70;50.80;;;;;;10330456;28;865;-71
2023/06/18 03:35:18;;;;;;;;;;;21.70;51.00;;;;;;10329600;28;1984;-71
2023/06/18 03:40:13;;;;;;;;;;;21.70;50.90;;;;;;10329428;28;985;-71
2023/06/18 03:45:09;;;;;;;;;;;21.70;50.80;;;;;;10328571;28;953;-75
2023/06/18 03:50:04;;;;;;;;;;;21.70;50.90;;;;;;10329703;28;833;-69
2023/06/18 03:55:00;;;;;;;;;;;21.20;49.70;;;;;;10328816;28;1964;-70
2023/06/18 03:59:56;;;;;;;;;;;20.40;50.20;;;;;;10326539;28;1009;-70
2023/06/18 04:04:51;;;;;;;;;;;20.20;50.40;;;;;;10328274;28;798;-70
2023/06/18 04:09:46;;;;;;;;;;;19.90;51.40;;;;;;10327416;28;999;-70
2023/06/18 04:14:42;;;;;;;;;;;19.80;52.30;;;;;;10327795;28;1914;-70
2023/06/18 04:19:37;;;;;;;;;;;19.70;52.80;;;;;;10327338;28;1307;-69
2023/06/18 04:24:32;;;;;;;;;;;19.60;53.30;;;;;;10294098;28;79862;-80
2023/06/18 04:35:48;;;;;;;;;;;19.90;52.80;;;19.43;48.13;99488.28;10240032;28;11777;-67
2023/06/18 04:40:43;;;;;;;;;;;20.00;52.90;;;19.19;48.86;99486.97;10244131;28;73541;-67
2023/06/18 04:45:39;;;;;;;;;;;20.00;52.90;;;19.20;48.91;99488.66;10242926;28;11020;-67
2023/06/18 04:50:35;;;;;;;;;;;20.00;53.40;;;19.17;49.12;99489.66;10239361;28;11068;-67
2023/06/18 04:55:30;;;;;;;;;;;19.90;52.80;;;19.08;50.66;99492.81;10237608;28;10468;-68
2023/06/18 05:00:26;;;;;;;;;;;19.90;54.50;;;18.99;50.81;99491.50;10238776;28;810;-68
2023/06/18 05:05:22;;;;;;;;;;;19.50;55.40;;;18.88;52.05;99487.72;10237363;28;1656;-67
2023/06/18 05:10:17;;;;;;;;;;;19.50;57.00;;;19.05;51.59;99488.53;10238440;28;957;-67
2023/06/18 05:15:13;;;;;;;;;;;19.50;56.90;;;19.02;52.00;99491.34;10237458;28;2029;-67
2023/06/18 05:20:08;;;;;;;;;;;19.40;57.30;;;19.09;51.95;99497.16;10238209;28;879;-67
2023/06/18 05:25:04;;;;;;;;;;;19.50;57.00;;;19.00;51.85;99495.00;10234655;28;1142;-67
2023/06/18 05:30:00;;;;;;;;;;;19.60;56.50;;;19.01;51.60;99494.91;10236831;28;825;-67
2023/06/18 05:34:55;;;;;;;;;;;19.60;56.40;;;19.10;52.37;99503.28;10270577;28;1922;-67
2023/06/18 05:39:51;;;;;;;;;;;19.50;57.30;;;19.09;51.96;99506.88;10277148;28;793;-67
2023/06/18 05:44:47;;;;;;;;;;;19.60;57.00;;;19.02;51.92;99503.69;10263501;28;798;-67
2023/06/18 05:49:42;;;;;;;;;;;19.60;56.40;;;19.09;51.99;99509.50;10249448;28;1081;-67
2023/06/18 05:54:39;;;;;;;;;;;19.60;56.90;;;19.22;52.14;99513.22;10249316;28;1961;-67
2023/06/18 05:59:34;;;;;;;;;;;19.80;57.30;;;19.26;52.14;99509.47;10249071;28;891;-67
2023/06/18 06:04:29;;;;;;;;;;;19.90;57.20;;;19.24;52.71;99514.00;10248005;28;1027;-67
2023/06/18 06:09:25;;;;;;;;;;;20.00;57.20;;;19.30;52.33;99518.09;10248727;28;798;-67
2023/06/18 06:14:21;;;;;;;;;;;19.90;56.80;;;19.21;52.51;99512.38;10249127;28;1969;-67
2023/06/18 06:19:16;;;;;;;;;;;19.90;56.80;;;19.55;51.72;99521.13;10248496;28;934;-67
2023/06/18 06:24:11;;;;;;;;;;;20.20;55.80;;;19.78;50.95;99519.03;10248452;28;821;-68
2023/06/18 06:29:07;;;;;;;;;;;20.40;55.50;;;19.89;50.83;99520.16;10248284;28;889;-67
2023/06/18 06:34:02;;;;;;;;;;;20.60;55.10;;;19.97;50.77;99522.38;10248728;28;1983;-66
2023/06/18 06:38:58;;;;;;;;;;;20.70;55.00;;;19.99;50.76;99514.34;10247918;28;912;-67
2023/06/18 06:43:53;;;;;;;;;;;20.70;55.00;;;20.02;50.72;99508.91;10248954;28;849;-67
2023/06/18 06:48:48;;;;;;;;;;;20.70;55.00;;;20.07;50.58;99506.84;10247540;28;910;-67
2023/06/18 06:53:44;;;;;;;;;;;20.80;55.00;;;20.12;50.39;99510.06;10247576;28;1906;-67
2023/06/18 06:58:39;;;;;;;;;;;20.80;54.80;;;20.14;50.39;99508.19;10246166;28;806;-67
2023/06/18 07:03:35;;;;;;;;;;;20.80;54.80;;;20.17;50.44;99513.31;10246903;28;754;-67
2023/06/18 07:08:31;;;;;;;;;;;20.90;54.80;;;20.20;50.42;99515.81;10246663;28;790;-68
2023/06/18 07:13:26;;;;;;;;;;;20.90;54.70;;;20.23;50.39;99515.63;10246483;28;1906;-67
2023/06/18 07:18:22;;;;;;;;;;;20.90;54.70;;;20.23;50.44;99520.91;10246922;28;960;-67
2023/06/18 07:23:17;;;;;;;;;;;20.90;54.70;;;20.27;50.45;99521.59;10246157;28;859;-67
2023/06/18 07:28:12;;;;;;;;;;;21.00;54.90;;;20.27;50.50;99509.19;10245982;28;868;-66
2023/06/18 07:33:08;;;;;;;;;;;21.00;55.00;;;20.25;50.52;99511.09;10245362;28;1914;-67
2023/06/18 07:38:03;;;;;;;;;;;20.90;55.00;;;20.28;50.54;99523.31;10246764;28;865;-67
2023/06/18 07:42:58;;;;;;;;;;;21.00;55.10;;;20.27;50.41;99514.50;10245494;28;818;-68
2023/06/18 07:47:54;;;;;;;;;;;21.00;55.00;;;20.30;50.56;99503.75;10245334;28;782;-68
2023/06/18 07:52:49;;;;;;;;;;;21.00;55.00;;;20.32;50.48;99493.91;10245144;28;1910;-68
2023/06/18 07:57:45;;;;;;;;;;;21.00;54.90;;;20.33;50.38;99495.63;10245583;28;874;-68
2023/06/18 08:02:40;;;;;;;;;;;21.00;54.90;;;20.34;50.29;99484.09;10245080;28;841;-72
2023/06/18 08:07:36;;;;;;;;;;;21.00;54.80;;;20.34;50.44;99489.38;10244504;28;940;-72
2023/06/18 08:12:31;;;;;;;;;;;21.00;54.80;;;20.33;50.40;99498.28;10244565;28;1965;-67
2023/06/18 08:17:27;;;;;;;;;;;21.00;54.90;;;20.34;50.17;99486.72;10244982;28;750;-67
2023/06/18 08:22:22;;;;;;;;;;;21.00;54.90;;;20.34;50.39;99489.38;10244280;28;861;-68
2023/06/18 08:27:18;;;;;;;;;;;21.00;54.90;;;20.34;50.27;99486.72;10243910;28;790;-68
2023/06/18 08:32:13;;;;;;;;;;;21.00;54.90;;;20.38;50.22;99481.25;10244498;28;1910;-67
2023/06/18 08:37:09;;;;;;;;;;;21.00;54.90;;;20.39;50.21;99480.34;10243956;28;949;-67
2023/06/18 08:42:05;;;;;;;;;;;21.00;54.90;;;20.39;50.29;99480.34;10243839;28;977;-67
2023/06/18 08:47:00;;;;;;;;;;;21.00;54.80;;;20.39;50.11;99475.03;10243789;28;847;-67
2023/06/18 08:51:55;;;;;;;;;;;21.00;54.80;;;20.39;50.05;99482.97;10243593;28;1906;-68
2023/06/18 08:56:51;;;;;;;;;;;21.00;54.80;;;20.40;50.21;99476.72;10243563;28;780;-68
2023/06/18 09:01:46;;;;;;;;;;;21.00;54.80;;;20.44;50.08;99479.13;10243734;28;904;-68
2023/06/18 09:06:42;;;;;;;;;;;21.00;54.70;;;20.45;50.03;99486.09;10243389;28;835;-69
2023/06/18 09:11:37;;;;;;;;;;;21.00;54.60;;;20.45;49.89;99477.31;10243396;28;1906;-69
2023/06/18 09:16:32;;;;;;;;;;;21.00;54.60;;;20.46;49.98;99471.06;10243189;28;919;-69
2023/06/18 09:21:28;;;;;;;;;;;21.00;54.60;;;20.46;49.80;99466.66;10248892;28;846;-69
2023/06/18 09:26:23;;;;;;;;;;;21.00;54.50;;;20.47;49.82;99473.63;10250193;28;1062;-68
2023/06/18 09:31:19;;;;;;;;;;;21.00;54.50;;;20.49;49.71;99470.91;10250359;28;1910;-69
2023/06/18 09:36:14;;;;;;;;;;;21.00;54.40;;;20.49;49.63;99466.47;10250056;28;955;-69
2023/06/18 09:41:10;;;;;;;;;;;21.00;54.40;;;20.49;49.63;99470.91;10251714;28;844;-69
2023/06/18 09:46:06;;;;;;;;;;;21.00;54.40;;;20.52;49.67;99470.72;10250336;28;873;-69
2023/06/18 09:51:01;;;;;;;;;;;21.00;54.40;;;20.53;49.68;99453.88;10249641;28;1963;-69
2023/06/18 09:55:57;;;;;;;;;;;21.00;54.40;;;20.56;49.36;99457.22;10249460;28;784;-74
2023/06/18 10:00:52;;;;;;;;;;;21.10;54.30;;;20.59;49.48;99450.91;10250124;28;864;-75
2023/06/18 10:05:47;;;;;;;;;;;21.10;54.30;;;20.62;49.31;99466.63;10249478;28;810;-74
2023/06/18 10:10:43;;;;;;;;;;;21.10;54.20;;;20.62;49.39;99461.31;10249199;28;929;-74
2023/06/18 10:15:38;;;;;;;;;;;21.10;54.20;;;20.64;49.39;99459.41;10248837;28;1975;-74
2023/06/18 10:20:34;;;;;;;;;;;21.10;54.10;;;20.65;49.31;99450.53;10248756;28;829;-75
2023/06/18 10:25:29;;;;;;;;;;;21.20;54.10;;;20.64;49.19;99446.19;10248336;28;810;-75
2023/06/18 10:30:24;;;;;;;;;;;21.20;54.10;;;20.66;49.10;99441.66;10247613;28;858;-75
2023/06/18 10:35:20;;;;;;;;;;;21.20;54.10;;;20.67;49.17;99432.78;10248108;28;1922;-74
2023/06/18 10:40:15;;;;;;;;;;;21.20;54.10;;;20.69;49.17;99428.22;10248919;28;870;-74
2023/06/18 10:45:11;;;;;;;;;;;21.20;54.00;;;20.71;49.08;99428.13;10248306;28;885;-76
2023/06/18 10:50:06;;;;;;;;;;;21.20;54.00;;;20.70;49.04;99424.63;10247528;28;925;-74
2023/06/18 10:55:02;;;;;;;;;;;21.20;54.00;;;20.56;49.43;99411.38;10246670;28;1967;-74
2023/06/18 10:59:57;;;;;;;;;;;21.20;54.00;;;20.51;49.39;99416.03;10247037;28;1132;-72
2023/06/18 11:04:53;;;;;;;;;;;21.10;54.10;;;20.48;49.58;99401.19;10247479;28;852;-75
2023/06/18 11:09:48;;;;;;;;;;;21.10;54.10;;;20.47;49.59;99399.50;10246977;28;962;-75
2023/06/18 11:14:44;;;;;;;;;;;21.10;54.10;;;20.47;49.59;99399.50;10246543;28;1972;-75
2023/06/18 11:19:39;;;;;;;;;;;21.10;54.10;;;20.46;49.62;99391.63;10247607;28;853;-75
2023/06/18 11:24:34;;;;;;;;;;;21.10;54.10;;;20.45;49.65;99389.94;10246770;28;867;-74
2023/06/18 11:29:30;;;;;;;;;;;21.10;54.10;;;20.45;49.58;99385.50;10246014;28;853;-75
2023/06/18 11:34:25;;;;;;;;;;;21.10;54.10;;;20.44;49.50;99375.88;10244675;28;1989;-75
2023/06/18 11:39:21;;;;;;;;;;;21.10;54.20;;;20.44;49.54;99373.22;10245379;28;1089;-70
2023/06/18 11:44:16;;;;;;;;;;;21.10;54.20;;;20.48;49.71;99384.47;10244963;28;780;-67
2023/06/18 11:49:12;;;;;;;;;;;21.10;54.30;;;20.47;49.63;99369.53;10245152;28;849;-70
2023/06/18 11:54:07;;;;;;;;;;;21.10;54.30;;;20.45;49.84;99356.38;10244191;28;1922;-70
2023/06/18 11:59:03;;;;;;;;;;;21.10;54.50;;;20.44;49.99;99349.41;10244724;28;780;-70
2023/06/18 12:03:58;;;;;;;;;;;21.10;54.50;;;20.45;50.06;99343.13;10244928;28;961;-70
2023/06/18 12:08:53;;;;;;;;;;;21.10;54.60;;;20.45;49.96;99340.50;10244400;28;903;-70
2023/06/18 12:13:51;;;;;;;;;;;21.10;54.60;;;20.45;49.96;99327.25;10244844;28;1914;-70
2023/06/18 12:18:46;;;;;;;;;;;21.10;54.60;;;20.45;49.99;99329.06;10244686;28;870;-69
2023/06/18 12:23:42;;;;;;;;;;;21.10;54.40;;;20.46;49.82;99328.09;10244540;28;786;-76
2023/06/18 12:28:37;;;;;;;;;;;21.10;54.40;;;20.48;49.94;99323.56;10244042;28;887;-76
2023/06/18 12:33:32;;;;;;;;;;;21.10;54.40;;;20.47;49.85;99322.72;10243355;28;1964;-76
2023/06/18 12:38:28;;;;;;;;;;;21.10;54.40;;;20.49;49.71;99322.66;10243076;28;968;-76
2023/06/18 12:43:23;;;;;;;;;;;21.10;54.30;;;20.47;49.72;99314.78;10244729;28;838;-75
2023/06/18 12:48:20;;;;;;;;;;;21.10;54.30;;;20.49;49.74;99317.34;10244107;28;930;-74
2023/06/18 12:53:17;;;;;;;;;;;21.10;54.20;;;20.49;49.70;99318.19;10244131;28;1914;-74
2023/06/18 12:58:13;;;;;;;;;;;21.10;54.20;;;20.50;49.68;99309.28;10252094;28;911;-74
2023/06/18 13:03:09;;;;;;;;;;;21.10;54.20;;;20.50;49.69;99303.16;10251467;28;880;-70
2023/06/18 13:08:05;;;;;;;;;;;21.10;54.10;;;20.50;49.71;99303.16;10251004;28;870;-75
2023/06/18 13:13:01;;;;;;;;;;;21.10;54.10;;;20.50;49.71;99290.75;10251562;28;1971;-74
2023/06/18 13:17:56;;;;;;;;;;;21.20;54.20;;;20.51;49.65;99294.25;10250827;28;860;-74
2023/06/18 13:22:53;;;;;;;;;;;21.20;54.20;;;20.52;49.53;99290.69;10251743;28;1536;-73
2023/06/18 13:27:48;;;;;;;;;;;21.20;54.20;;;20.53;49.64;99282.63;10250410;28;778;-72
2023/06/18 13:32:44;;;;;;;;;;;21.20;54.10;;;20.54;49.54;99280.84;10250513;28;1992;-73
2023/06/18 13:37:40;;;;;;;;;;;21.20;54.10;;;20.55;49.65;99279.94;10250124;28;808;-73
2023/06/18 13:42:35;;;;;;;;;;;21.20;54.20;;;20.56;49.55;99282.47;10249731;28;770;-73
2023/06/18 13:47:31;;;;;;;;;;;21.20;54.20;;;20.56;49.53;99271.03;10249626;28;863;-75
2023/06/18 13:52:26;;;;;;;;;;;21.20;54.10;;;20.57;49.58;99272.75;10249374;28;1978;-75
2023/06/18 13:57:21;;;;;;;;;;;21.30;54.10;;;20.57;49.45;99278.88;10249140;28;937;-74
2023/06/18 14:02:17;;;;;;;;;;;21.20;54.00;;;20.61;49.50;99276.88;10249828;28;805;-68
2023/06/18 14:07:13;;;;;;;;;;;21.30;54.20;;;20.62;49.56;99275.97;10248720;28;770;-69
2023/06/18 14:12:08;;;;;;;;;;;21.30;54.20;;;20.64;49.39;99274.03;10249469;28;1918;-68
2023/06/18 14:17:09;;;;;;;;;;;21.30;54.30;;;20.65;49.48;99269.63;10249223;28;798;-68
2023/06/18 14:22:05;;;;;;;;;;;21.30;54.50;;;20.67;49.79;99271.22;10248382;28;850;-67
2023/06/18 14:27:01;;;;;;;;;;;21.40;54.40;;;20.71;50.34;99270.06;10248780;28;806;-68
2023/06/18 14:31:56;;;;;;;;;;;21.40;55.20;;;20.72;50.28;99265.63;10248935;28;1989;-72
2023/06/18 14:36:52;;;;;;;;;;;21.40;55.20;;;20.73;50.27;99262.03;10248644;28;794;-67
2023/06/18 14:41:47;;;;;;;;;;;21.40;54.80;;;20.72;49.82;99261.19;10249050;28;841;-68
2023/06/18 14:46:42;;;;;;;;;;;21.40;54.50;;;20.72;49.86;99261.19;10247720;28;868;-67
2023/06/18 14:51:38;;;;;;;;;;;21.40;54.90;;;20.74;49.82;99259.28;10247426;28;1918;-68
2023/06/18 14:56:33;;;;;;;;;;;21.40;55.10;;;20.75;49.68;99260.13;10247280;28;941;-67
2023/06/18 15:01:29;;;;;;;;;;;22.60;80.70;;;20.79;50.31;99259.84;10247238;28;942;-67
2023/06/18 15:06:24;;;;;;;;;;;21.50;55.00;;;20.81;49.96;99261.56;10246866;28;794;-67
2023/06/18 15:11:19;;;;;;;;;;;21.50;54.80;;;20.82;50.07;99260.59;10246837;28;1914;-68
2023/06/18 15:16:15;;;;;;;;;;;21.50;54.90;;;20.82;50.04;99260.59;10245797;28;948;-67
2023/06/18 15:21:11;;;;;;;;;;;21.50;54.80;;;20.83;50.03;99254.34;10247025;28;865;-67
2023/06/18 15:26:06;;;;;;;;;;;21.50;54.90;;;20.85;50.16;99260.41;10246587;28;829;-68
2023/06/18 15:31:02;;;;;;;;;;;21.60;55.20;;;20.85;50.07;99255.09;10246177;28;1181;-68
2023/06/18 15:35:57;;;;;;;;;;;21.60;55.00;;;20.84;49.99;99256.91;10245668;28;1966;-69
2023/06/18 15:40:52;;;;;;;;;;;21.60;57.80;;;20.85;49.95;99255.09;10246231;28;889;-67
2023/06/18 15:45:48;;;;;;;;;;;21.50;56.40;;;20.86;50.12;99255.00;10245467;28;841;-67
2023/06/18 15:50:43;;;;;;;;;;;21.60;55.10;;;20.87;50.10;99256.69;10245894;28;982;-68
2023/06/18 15:55:38;;;;;;;;;;;21.60;55.80;;;20.87;50.43;99247.91;10245883;28;1898;-70
2023/06/18 16:00:34;;;;;;;;;;;21.60;58.90;;;20.89;50.30;99243.38;10245009;28;865;-67
2023/06/18 16:05:30;;;;;;;;;;;21.60;59.10;;;20.88;50.38;99242.53;10245421;28;866;-67
2023/06/18 16:10:25;;;;;;;;;;;21.60;57.50;;;20.88;50.19;99245.19;10245188;28;822;-66
2023/06/18 16:15:21;;;;;;;;;;;21.70;56.70;;;20.90;50.41;99242.41;10244550;28;1952;-67
2023/06/18 16:20:17;;;;;;;;;;;21.60;57.20;;;20.89;50.33;99249.50;10244400;28;935;-68
2023/06/18 16:25:12;;;;;;;;;;;21.70;58.70;;;20.90;50.79;99243.25;10244276;28;775;-68
2023/06/18 16:30:08;;;;;;;;;;;21.60;59.80;;;20.91;50.53;99244.97;10244608;28;885;-74
2023/06/18 16:35:03;;;;;;;;;;;21.60;61.00;;;20.93;50.47;99244.84;10243725;28;1906;-72
2023/06/18 16:39:59;;;;;;;;;;;21.70;58.10;;;20.95;50.45;99242.97;10243419;28;928;-70
2023/06/18 16:44:54;;;;;;;;;;;21.70;65.60;;;20.96;50.17;99239.38;10243926;28;813;-72
2023/06/18 16:49:49;;;;;;;;;;;21.70;58.40;;;20.97;50.14;99243.72;10244170;28;798;-72
2023/06/18 16:54:45;;;;;;;;;;;21.80;56.60;;;20.96;50.11;99240.22;10243608;28;1915;-73
2023/06/18 16:59:40;;;;;;;;;;;21.70;55.00;;;20.98;49.96;99242.75;10242903;28;945;-73
2023/06/18 17:04:36;;;;;;;;;;;21.70;54.90;;;20.99;49.78;99244.47;10244196;28;770;-73
2023/06/18 17:09:31;;;;;;;;;;;21.70;55.00;;;20.99;49.97;99236.53;10243087;28;968;-72
2023/06/18 17:14:27;;;;;;;;;;;21.80;57.00;;;21.00;49.93;99238.22;10243517;28;1898;-72
2023/06/18 17:19:22;;;;;;;;;;;21.80;64.40;;;21.01;49.90;99235.47;10243881;28;842;-72
2023/06/18 17:24:18;;;;;;;;;;;21.80;75.20;;;21.01;49.62;99222.25;10243093;28;1025;-72
2023/06/18 17:29:13;;;;;;;;;;;21.70;77.80;;;21.01;49.68;99219.59;10243830;28;790;-72
2023/06/18 17:34:08;;;;;;;;;;;21.80;83.70;;;21.04;49.81;99215.88;10242291;28;1981;-72
2023/06/18 17:39:04;;;;;;;;;;;21.90;87.00;;;21.04;49.68;99213.25;10242677;28;912;-72
2023/06/18 17:43:59;;;;;;;;;;;21.70;54.00;;;21.05;49.66;99201.69;10250204;28;840;-71
2023/06/18 17:48:55;;;;;;;;;;;21.90;54.60;;;21.07;49.55;99202.44;10232089;28;810;-73
2023/06/18 17:53:50;;;;;;;;;;;21.90;54.60;;;21.07;49.53;99198.94;10249837;28;1910;-72
2023/06/18 17:58:46;;;;;;;;;;;21.90;54.60;;;21.08;49.69;99198.81;10249916;28;862;-72
2023/06/18 18:03:41;;;;;;;;;;;21.90;54.50;;;21.08;49.57;99188.22;10249693;28;1049;-72
2023/06/18 18:08:37;;;;;;;;;;;21.90;54.40;;;21.10;49.57;99188.13;10250023;28;813;-72
2023/06/18 18:13:32;;;;;;;;;;;21.90;54.50;;;21.10;49.66;99194.28;10249757;28;1918;-71
2023/06/18 18:18:27;;;;;;;;;;;21.90;54.50;;;21.11;49.45;99188.00;10249815;28;851;-71
2023/06/18 18:23:23;;;;;;;;;;;21.90;54.40;;;21.12;49.49;99178.28;10249261;28;870;-71
2023/06/18 18:28:18;;;;;;;;;;;21.90;54.40;;;21.13;49.47;99186.13;10248492;28;763;-70
2023/06/18 18:33:14;;;;;;;;;;;;;;;21.21;49.48;99175.00;10248299;28;2044;-65
2023/06/18 18:38:10;;;;;;;;;;;;;;;21.22;49.58;99179.34;10248222;28;918;-67
2023/06/18 18:43:05;;;;;;;;;;;22.00;54.10;;;21.23;49.61;99175.75;10247977;28;889;-68
2023/06/18 18:48:01;;;;;;;;;;;;;;;21.24;49.67;99182.75;10247196;28;859;-67
2023/06/18 18:52:57;;;;;;;;;;;;;;;21.24;49.55;99169.50;10247244;28;1967;-68
2023/06/18 18:57:53;;;;;;;;;;;;;;;21.23;49.55;99166.00;10248087;28;834;-68
2023/06/18 19:02:49;;;;;;;;;;;;;;;21.25;49.49;99176.53;10247329;28;965;-68
2023/06/18 19:07:44;;;;;;;;;;;22.00;54.00;;;21.27;49.54;99165.78;10246905;28;910;-68
2023/06/18 19:12:40;;;;;;;;;;;22.00;54.60;;;21.28;49.39;99164.88;10246738;28;1906;-68
2023/06/18 19:17:35;;;;;;;;;;;22.00;54.50;;;21.27;49.37;99161.34;10246574;28;771;-68
2023/06/18 19:22:32;;;;;;;;;;;;;;;21.29;49.41;99169.19;10246396;28;863;-68
2023/06/18 19:27:28;;;;;;;;;;;;;;;21.29;49.37;99171.84;10246122;28;890;-68
2023/06/18 19:32:24;;;;;;;;;;;;;;;21.30;49.47;99168.25;10245669;28;1906;-68
2023/06/18 19:37:20;;;;;;;;;;;;;;;21.30;49.44;99165.59;10245872;28;815;-71
2023/06/18 19:42:16;;;;;;;;;;;;;;;21.31;49.42;99167.31;10245619;28;887;-71
2023/06/18 19:47:12;;;;;;;;;;;;;;;21.31;49.37;99168.16;10246022;28;841;-71
2023/06/18 19:52:08;;;;;;;;;;;;;;;21.32;49.50;99174.28;10245173;28;1894;-71
2023/06/18 19:57:04;;;;;;;;;;;;;;;21.32;49.26;99183.09;10245202;28;818;-71
2023/06/18 20:02:00;;;;;;;;;;;;;;;21.33;49.28;99181.31;10245208;28;922;-72
2023/06/18 20:06:56;;;;;;;;;;;;;;;21.33;49.46;99171.56;10245417;28;775;-71
2023/06/18 20:11:52;;;;;;;;;;;;;;;21.35;49.53;99179.38;10245073;28;1897;-70
2023/06/18 20:16:47;;;;;;;;;;;;;;;21.36;49.44;99186.41;10243956;28;861;-70
2023/06/18 20:21:44;;;;;;;;;;;;;;;21.36;49.54;99181.09;10244960;28;841;-71
2023/06/18 20:26:40;;;;;;;;;;;;;;;21.35;49.39;99172.31;10244788;28;883;-71
2023/06/18 20:31:36;;;;;;;;;;;;;;;21.36;49.52;99176.63;10243367;28;1902;-71
2023/06/18 20:36:31;;;;;;;;;;;;;;;21.37;49.42;99180.13;10243774;28;797;-71
2023/06/18 20:41:27;;;;;;;;;;;;;;;21.39;49.45;99175.63;10243601;28;855;-71
2023/06/18 20:46:24;;;;;;;;;;;;;;;21.38;49.35;99169.47;10243886;28;871;-71
2023/06/18 20:51:20;;;;;;;;;;;;;;;21.39;49.39;99167.66;10244386;28;933;-71
2023/06/18 20:56:15;;;;;;;;;;;;;;;21.39;49.26;99155.25;10243653;28;1951;-71
2023/06/18 21:01:11;;;;;;;;;;;;;;;21.39;49.50;99165.84;10243592;28;1029;-71
2023/06/18 21:06:07;;;;;;;;;;;;;;;21.41;49.26;99163.13;10243590;28;877;-70
2023/06/18 21:11:03;;;;;;;;;;;;;;;21.41;49.25;99149.84;10243474;28;1209;-70
2023/06/18 21:15:59;;;;;;;;;;;;;;;21.41;49.29;99156.00;10246872;28;1961;-71
2023/06/18 21:20:55;;;;;;;;;;;;;;;21.42;49.36;99151.53;10251660;28;834;-71
2023/06/18 21:25:51;;;;;;;;;;;;;;;21.42;49.38;99164.81;10251040;28;848;-69
2023/06/18 21:30:47;;;;;;;;;;;;;;;21.44;49.27;99178.81;10251297;28;943;-69
2023/06/18 21:35:43;;;;;;;;;;;;;;;21.44;49.43;99184.13;10250489;28;1914;-68
2023/06/18 21:40:38;;;;;;;;;;;;;;;21.44;49.38;99184.13;10249955;28;833;-69
2023/06/18 21:45:34;;;;;;;;;;;;;;;21.43;49.35;99182.41;10250255;28;800;-68
2023/06/18 21:50:30;;;;;;;;;;;;;;;21.45;49.24;99184.00;10251209;28;834;-68
2023/06/18 21:55:27;;;;;;;;;;;;;;;21.45;49.29;99180.50;10249826;28;1948;-68
2023/06/18 22:00:22;;;;;;;;;;;22.30;53.60;;;21.44;49.44;99181.47;10249554;28;959;-68
2023/06/18 22:05:18;;;;;;;;;;;22.30;54.10;;;21.45;49.29;99180.50;10249437;28;826;-68
2023/06/18 22:10:14;;;;;;;;;;;22.30;54.10;;;21.47;49.29;99183.06;10249239;28;787;-68
2023/06/18 22:15:10;;;;;;;;;;;;;;;21.47;49.17;99186.56;10248910;28;1957;-68
2023/06/18 22:20:05;;;;;;;;;;;22.30;53.70;;;21.47;49.36;99181.25;10249809;28;875;-68
2023/06/18 22:25:01;;;;;;;;;;;;;;;21.47;49.20;99186.56;10248532;28;928;-68
2023/06/18 22:29:57;;;;;;;;;;;22.30;53.50;;;21.48;49.25;99190.88;10248555;28;780;-68
2023/06/18 22:34:52;;;;;;;;;;;22.30;54.10;;;21.50;49.21;99194.28;10248600;28;1910;-68
2023/06/18 22:39:47;;;;;;;;;;;22.30;54.10;;;21.50;49.32;99191.66;10247588;28;1007;-68
2023/06/18 22:44:43;;;;;;;;;;;22.30;53.90;;;21.51;49.13;99197.78;10247402;28;1233;-68
2023/06/18 22:49:38;;;;;;;;;;;22.30;53.90;;;21.51;48.96;99201.31;10248677;28;822;-68
2023/06/18 22:54:34;;;;;;;;;;;22.40;54.00;;;21.51;49.26;99190.72;10247528;28;1915;-68
2023/06/18 22:59:29;;;;;;;;;;;22.40;54.10;;;21.51;48.98;99189.84;10247382;28;853;-68
2023/06/18 23:04:24;;;;;;;;;;;22.40;53.90;;;21.51;49.13;99179.22;10247212;28;809;-68
2023/06/18 23:09:20;;;;;;;;;;;22.40;53.90;;;21.52;48.97;99167.69;10246448;28;884;-68
2023/06/18 23:14:17;;;;;;;;;;;22.40;53.90;;;21.52;49.14;99151.78;10247367;28;1906;-68
2023/06/18 23:19:13;;;;;;;;;;;22.40;53.90;;;21.52;49.11;99147.31;10246557;28;1377;-68
2023/06/18 23:24:11;;;;;;;;;;;22.40;53.80;;;21.53;49.05;99140.19;10247019;28;803;-68
2023/06/18 23:29:09;;;;;;;;;;;22.40;53.80;;;21.53;49.05;99125.13;10246761;28;863;-68
2023/06/18 23:34:06;;;;;;;;;;;22.40;53.80;;;21.53;49.02;99119.00;10246669;28;1910;-68
2023/06/18 23:39:01;;;;;;;;;;;22.40;53.80;;;21.53;49.13;99119.84;10245143;28;807;-68
2023/06/18 23:43:57;;;;;;;;;;;22.40;53.80;;;21.54;49.01;99118.91;10245654;28;779;-68
2023/06/18 23:48:52;;;;;;;;;;;22.40;53.80;;;21.54;49.15;99112.75;10245457;28;829;-68
2023/06/18 23:53:47;;;;;;;;;;;22.40;53.80;;;21.54;48.97;99105.63;10245320;28;1910;-68
2023/06/18 23:58:43;;;;;;;;;;;22.40;53.80;;;21.54;49.06;99104.78;10245733;28;850;-68
